Time;durP1;ratioP1;P1;durP2;ratioP2;P2;SDS_P1;SDS_P2;PMS_P1;PMS_P2;Temp;Humidity;BMP_temperature;BMP_pressure;BME280_temperature;BME280_humidity;BME280_pressure;Samples;Min_cycle;Max_cycle;Signal;HPM_P1;HPM_P2
2023/03/05 00:02:05;;;;;;;62.00;27.13;;;;;;;3.12;58.99;99861.64;125075;1098;101830;-75
2023/03/05 00:04:36;;;;;;;55.53;26.30;;;;;;;3.12;59.52;99866.83;125164;1099;101955;-75
2023/03/05 00:07:11;;;;;;;62.70;26.60;;;;;;;3.09;59.51;99862.35;125178;1099;104172;-75
2023/03/05 00:09:42;;;;;;;62.63;26.10;;;;;;;3.10;59.21;99868.42;125098;1099;104335;-75
2023/03/05 00:12:15;;;;;;;58.07;26.37;;;;;;;3.11;58.86;99865.03;125111;1099;104214;-75
2023/03/05 00:14:47;;;;;;;58.55;25.85;;;;;;;3.07;59.30;99861.39;125186;1099;104200;-75
2023/03/05 00:17:18;;;;;;;59.50;25.90;;;;;;;3.06;59.78;99859.59;125127;1099;104178;-75
2023/03/05 00:19:49;;;;;;;61.60;26.90;;;;;;;3.05;59.38;99857.80;125157;1098;104265;-75
2023/03/05 00:22:20;;;;;;;56.50;25.40;;;;;;;3.05;59.18;99852.61;125120;1099;104233;-75
2023/03/05 00:24:53;;;;;;;58.03;25.63;;;;;;;3.04;59.84;99850.84;125082;1099;101881;-75
2023/03/05 00:27:24;;;;;;;60.90;25.97;;;;;;;3.03;59.03;99854.23;125048;1099;104217;-76
2023/03/05 00:29:56;;;;;;;58.90;25.85;;;;;;;3.03;60.17;99854.23;125135;1099;104275;-76
2023/03/05 00:32:27;;;;;;;54.37;26.27;;;;;;;3.03;61.14;99854.23;125045;1098;101970;-75
2023/03/05 00:34:58;;;;;;;52.83;24.77;;;;;;;3.02;60.33;99839.48;125013;1099;101917;-75
2023/03/05 00:37:29;;;;;;;56.33;26.93;;;;;;;3.02;60.63;99840.39;125981;1099;101814;-75
2023/03/05 00:40:01;;;;;;;59.80;26.50;;;;;;;3.03;60.33;99847.34;125167;1099;109420;-75
2023/03/05 00:42:37;;;;;;;55.67;25.07;;;;;;;3.04;60.39;99853.44;124717;1099;104236;-75
2023/03/05 00:45:10;;;;;;;58.30;25.67;;;;;;;3.02;61.04;99863.72;125266;1099;104185;-75
2023/03/05 00:47:42;;;;;;;53.98;24.55;;;;;;;3.00;61.03;99856.66;125087;1099;104187;-76
2023/03/05 00:50:14;;;;;;;55.23;23.37;;;;;;;3.00;61.30;99856.66;125223;1099;103169;-75
2023/03/05 00:52:45;;;;;;;53.47;24.13;;;;;;;2.98;61.27;99853.98;125118;1099;104345;-75
2023/03/05 00:55:17;;;;;;;53.93;23.20;;;;;;;2.97;61.01;99859.08;125133;1099;104272;-75
2023/03/05 00:57:48;;;;;;;53.57;24.10;;;;;;;2.98;61.05;99855.69;125121;1099;101970;-75
2023/03/05 01:00:21;;;;;;;52.47;23.20;;;;;;;3.01;61.61;99858.45;125078;1099;104197;-76
2023/03/05 01:02:52;;;;;;;52.50;24.23;;;;;;;3.01;60.74;99859.34;124651;1099;104224;-75
2023/03/05 01:05:24;;;;;;;50.03;22.57;;;;;;;3.04;61.08;99863.81;125095;1099;104182;-75
2023/03/05 01:07:56;;;;;;;54.77;22.17;;;;;;;3.04;60.42;99862.09;126189;1098;101807;-75
2023/03/05 01:10:29;;;;;;;49.30;23.40;;;;;;;3.08;61.05;99865.74;125193;1099;118780;-75
2023/03/05 01:13:00;;;;;;;47.27;21.47;;;;;;;3.12;61.35;99861.64;125152;1099;104099;-75
2023/03/05 01:15:31;;;;;;;49.03;22.50;;;;;;;3.14;60.53;99870.38;125140;1099;104292;-75
2023/03/05 01:18:03;;;;;;;44.63;21.73;;;;;;;3.14;60.96;99866.08;124650;1099;102783;-75
2023/03/05 01:20:34;;;;;;;46.60;20.53;;;;;;;3.15;60.63;99867.88;125170;1099;104169;-75
2023/03/05 01:23:05;;;;;;;47.93;21.90;;;;;;;3.17;60.48;99862.78;125146;1098;104475;-75
2023/03/05 01:25:37;;;;;;;46.15;20.35;;;;;;;3.21;61.65;99864.70;125100;1099;104338;-75
2023/03/05 01:28:08;;;;;;;44.97;19.93;;;;;;;3.22;61.41;99863.91;125150;1099;104297;-74
2023/03/05 01:30:40;;;;;;;43.60;20.03;;;;;;;3.23;61.01;99873.48;125078;1099;104248;-75
2023/03/05 01:33:11;;;;;;;41.43;19.27;;;;;;;3.22;61.25;99872.57;125004;1099;101881;-75
2023/03/05 01:35:42;;;;;;;41.40;18.30;;;;;;;3.26;61.54;99867.55;125001;1099;103254;-75
2023/03/05 01:38:14;;;;;;;40.05;18.85;;;;;;;3.27;60.81;99866.75;126199;1098;101932;-75
2023/03/05 01:40:45;;;;;;;40.83;17.90;;;;;;;3.28;61.72;99868.55;124659;1098;101912;-75
2023/03/05 01:43:25;;;;;;;43.07;18.30;;;;;;;3.30;61.98;99870.40;126166;1098;101934;-75
2023/03/05 01:46:34;;;;;;;41.30;18.43;;;;;;;3.30;61.49;99861.73;125123;1099;104089;-75
2023/03/05 01:49:20;;;;;;;40.27;17.30;;;;;;;3.32;61.54;99871.40;125094;1099;104233;-75
2023/03/05 01:52:00;;;;;;;41.37;18.17;;;;;;;3.34;61.47;99866.30;125125;1098;104182;-75
2023/03/05 01:54:36;;;;;;;38.77;16.93;;;;;;;3.35;61.63;99873.24;126121;1099;101818;-75
2023/03/05 01:57:14;;;;;;;39.77;16.40;;;;;;;3.36;60.76;99869.84;125144;1099;104189;-75
2023/03/05 01:59:49;;;;;;;36.80;16.10;;;;;;;3.39;61.17;99867.42;124599;1099;104208;-75
2023/03/05 02:02:22;;;;;;;37.70;16.33;;;;;;;3.41;61.31;99873.58;125992;1098;101874;-75
2023/03/05 02:04:57;;;;;;;35.17;15.80;;;;;;;3.42;61.08;99876.25;125122;1099;104373;-76
2023/03/05 02:07:29;;;;;;;33.53;15.80;;;;;;;3.44;61.68;99878.92;125260;1099;101839;-75
2023/03/05 02:10:00;;;;;;;36.57;15.90;;;;;;;3.45;60.94;99882.44;125133;1099;104169;-74
2023/03/05 02:12:32;;;;;;;35.03;15.60;;;;;;;3.45;61.14;99882.44;125188;1099;104182;-74
2023/03/05 02:15:03;;;;;;;34.27;15.20;;;;;;;3.47;61.12;99891.19;125061;1099;104198;-75
2023/03/05 02:17:35;;;;;;;35.53;15.43;;;;;;;3.46;61.11;99879.92;125037;1098;102054;-74
2023/03/05 02:20:10;;;;;;;36.10;15.53;;;;;;;3.47;61.41;99889.47;125184;1099;101968;-76
2023/03/05 02:22:42;;;;;;;32.40;14.57;;;;;;;3.49;61.28;99889.55;125174;1099;104233;-75
2023/03/05 02:25:22;;;;;;;33.93;15.10;;;;;;;3.48;60.68;99893.86;125049;1099;104223;-75
2023/03/05 02:28:00;;;;;;;33.33;15.87;;;;;;;3.50;60.81;99894.83;126300;1098;101970;-76
2023/03/05 02:30:32;;;;;;;34.13;14.70;;;;;;;3.52;61.03;99893.23;125198;1098;102035;-75
2023/03/05 02:33:03;;;;;;;33.90;14.77;;;;;;;3.53;60.93;99900.18;126197;1098;101952;-74
2023/03/05 02:35:35;;;;;;;32.50;15.27;;;;;;;3.55;60.89;99890.80;125092;1098;104165;-75
2023/03/05 02:38:07;;;;;;;37.40;15.07;;;;;;;3.58;61.25;99895.23;125336;1099;101794;-75
2023/03/05 02:40:38;;;;;;;32.87;14.80;;;;;;;3.56;61.15;99889.09;125219;1099;102019;-75
2023/03/05 02:43:10;;;;;;;34.33;14.93;;;;;;;3.55;61.30;99890.80;125314;1099;102119;-75
2023/03/05 02:45:42;;;;;;;33.53;15.37;;;;;;;3.57;61.15;99886.58;124661;1099;104683;-75
2023/03/05 02:48:13;;;;;;;35.77;14.90;;;;;;;3.57;60.72;99890.89;125108;1099;104272;-75
2023/03/05 02:50:46;;;;;;;33.57;14.77;;;;;;;3.54;60.84;99883.81;125044;1098;104322;-75
2023/03/05 02:53:17;;;;;;;33.00;15.23;;;;;;;3.52;60.66;99893.23;124535;1099;102122;-75
2023/03/05 02:55:50;;;;;;;34.07;14.90;;;;;;;3.51;61.48;99899.22;124682;1099;104173;-75
2023/03/05 02:58:22;;;;;;;34.13;14.97;;;;;;;3.46;60.71;99900.68;124556;1099;102333;-74
2023/03/05 03:00:53;;;;;;;32.57;15.07;;;;;;;3.42;61.07;99904.78;124547;1099;104654;-75
2023/03/05 03:03:25;;;;;;;32.83;15.20;;;;;;;3.38;61.06;99912.31;125068;1099;101833;-75
2023/03/05 03:05:56;;;;;;;32.13;14.23;;;;;;;3.31;61.35;99910.20;124676;1099;102122;-75
2023/03/05 03:08:28;;;;;;;35.83;14.83;;;;;;;3.24;60.78;99915.05;126197;1098;102069;-76
2023/03/05 03:11:06;;;;;;;32.10;14.33;;;;;;;3.20;60.76;99909.62;125164;1099;104338;-75
2023/03/05 03:13:37;;;;;;;32.27;14.20;;;;;;;3.18;61.70;99917.31;124511;1099;104297;-75
2023/03/05 03:16:11;;;;;;;32.33;14.50;;;;;;;3.15;61.51;99919.73;125212;1099;101880;-75
2023/03/05 03:18:43;;;;;;;34.85;15.20;;;;;;;3.08;61.44;99922.77;126265;1098;101942;-75
2023/03/05 03:21:21;;;;;;;36.60;15.27;;;;;;;3.03;61.68;99917.33;125152;1099;104198;-75
2023/03/05 03:23:52;;;;;;;30.63;14.03;;;;;;;3.00;61.81;99924.92;125173;1099;104169;-75
2023/03/05 03:26:24;;;;;;;33.70;15.60;;;;;;;2.96;61.31;99922.08;125162;1099;104195;-75
2023/03/05 03:28:55;;;;;;;36.33;15.83;;;;;;;2.93;61.69;99917.63;125076;1099;101833;-75
2023/03/05 03:31:26;;;;;;;34.13;14.43;;;;;;;2.90;61.00;99925.23;126189;1098;102053;-75
2023/03/05 03:33:58;;;;;;;37.30;14.63;;;;;;;2.86;61.90;99926.73;125086;1099;102010;-75
2023/03/05 03:36:29;;;;;;;33.93;15.03;;;;;;;2.85;61.83;99934.42;125217;1099;104080;-75
2023/03/05 03:39:00;;;;;;;34.67;15.07;;;;;;;2.81;61.38;99928.18;125077;1098;101829;-75
2023/03/05 03:41:32;;;;;;;34.53;15.30;;;;;;;2.79;62.28;99940.16;124623;1099;102004;-75
2023/03/05 03:44:06;;;;;;;31.97;14.03;;;;;;;2.79;61.45;99936.66;125120;1099;102065;-75
2023/03/05 03:46:37;;;;;;;36.42;15.28;;;;;;;2.81;61.96;99932.48;125200;1099;104169;-75
2023/03/05 03:49:14;;;;;;;33.47;15.20;;;;;;;2.80;61.92;99928.97;125127;1099;102155;-75
2023/03/05 03:51:45;;;;;;;34.20;14.63;;;;;;;2.83;62.38;99939.52;125109;1099;102515;-75
2023/03/05 03:54:18;;;;;;;30.83;14.07;;;;;;;2.84;62.17;99940.43;125111;1099;102090;-75
2023/03/05 03:56:49;;;;;;;31.30;14.87;;;;;;;2.85;61.45;99945.70;125175;1099;101907;-75
2023/03/05 03:59:20;;;;;;;32.83;14.53;;;;;;;2.87;61.95;99938.02;125113;1099;104290;-74
2023/03/05 04:01:52;;;;;;;34.60;15.27;;;;;;;2.90;62.59;99945.05;124658;1099;104158;-75
2023/03/05 04:04:25;;;;;;;33.07;14.03;;;;;;;2.89;62.27;99946.76;125100;1099;104201;-75
2023/03/05 04:06:56;;;;;;;32.63;14.77;;;;;;;2.91;62.63;99952.03;125090;1099;104173;-75
2023/03/05 04:09:27;;;;;;;32.87;14.67;;;;;;;2.92;62.32;99953.83;124584;1099;104201;-75
2023/03/05 04:11:59;;;;;;;34.80;14.50;;;;;;;2.93;62.58;99947.82;125107;1099;102141;-75
2023/03/05 04:14:30;;;;;;;32.67;14.60;;;;;;;2.93;62.63;99955.59;125110;1099;104050;-75
2023/03/05 04:17:01;;;;;;;34.90;15.33;;;;;;;2.91;62.66;99955.50;125112;1099;104246;-75
2023/03/05 04:19:33;;;;;;;32.33;14.63;;;;;;;2.91;62.48;99959.80;125158;1097;104242;-75
2023/03/05 04:22:04;;;;;;;34.67;15.53;;;;;;;2.93;62.65;99963.37;125119;1099;104249;-75
2023/03/05 04:24:36;;;;;;;31.57;14.70;;;;;;;2.95;62.77;99964.38;125072;1099;102061;-75
2023/03/05 04:27:07;;;;;;;34.23;15.40;;;;;;;2.94;62.45;99965.17;125290;1099;104173;-74
2023/03/05 04:29:39;;;;;;;31.90;14.67;;;;;;;2.96;62.32;99963.55;125481;1099;104279;-75
2023/03/05 04:32:10;;;;;;;33.87;14.03;;;;;;;2.97;62.16;99968.81;125235;1098;104302;-75
2023/03/05 04:34:42;;;;;;;34.03;14.57;;;;;;;2.97;62.69;99975.71;124677;1099;117897;-75
2023/03/05 04:37:13;;;;;;;32.83;14.77;;;;;;;2.97;61.79;99974.00;125082;1099;101896;-74
2023/03/05 04:39:44;;;;;;;31.23;14.67;;;;;;;2.99;62.76;99971.50;125103;1098;104178;-75
2023/03/05 04:42:16;;;;;;;32.90;14.33;;;;;;;2.98;62.74;99972.33;125852;1099;102129;-75
2023/03/05 04:44:48;;;;;;;33.80;15.33;;;;;;;2.98;63.00;99975.80;125039;1098;101874;-74
2023/03/05 04:47:20;;;;;;;32.67;14.27;;;;;;;2.98;62.55;99975.80;125229;1098;104387;-75
2023/03/05 04:49:51;;;;;;;32.43;15.00;;;;;;;2.96;62.51;99980.02;125108;1099;104223;-75
2023/03/05 04:52:23;;;;;;;33.47;15.20;;;;;;;2.95;62.80;99979.92;125142;1099;101935;-75
2023/03/05 04:54:54;;;;;;;33.43;15.27;;;;;;;2.93;62.23;99984.10;125030;1099;104185;-74
2023/03/05 04:57:25;;;;;;;33.30;15.20;;;;;;;2.92;62.47;99987.52;125106;1099;104236;-75
2023/03/05 04:59:56;;;;;;;35.70;16.03;;;;;;;2.91;62.76;99985.72;125137;1099;104245;-75
2023/03/05 05:02:28;;;;;;;32.40;14.30;;;;;;;2.90;62.78;99986.52;125147;1099;102025;-75
2023/03/05 05:04:59;;;;;;;33.60;14.80;;;;;;;2.91;63.57;99988.31;125149;1099;101835;-75
2023/03/05 05:07:31;;;;;;;39.10;15.80;;;;;;;2.90;62.97;99995.20;126171;1098;101795;-75
2023/03/05 05:10:03;;;;;;;34.50;15.23;;;;;;;2.89;63.10;99996.00;125043;1098;104169;-75
2023/03/05 05:12:35;;;;;;;33.80;15.17;;;;;;;2.90;62.93;99999.48;125153;1099;104273;-75
2023/03/05 05:15:08;;;;;;;29.30;13.27;;;;;;;2.88;62.78;100007.16;125046;1099;101887;-75
2023/03/05 05:17:40;;;;;;;35.25;14.18;;;;;;;2.87;62.95;100006.28;125126;1099;104172;-75
2023/03/05 05:20:14;;;;;;;30.27;13.67;;;;;;;2.87;62.67;100019.23;125065;1099;104185;-75
2023/03/05 05:22:46;;;;;;;33.03;14.37;;;;;;;2.90;62.82;100022.80;125218;1099;104299;-74
2023/03/05 05:25:17;;;;;;;31.70;14.73;;;;;;;2.92;62.60;100026.40;125130;1099;104262;-75
2023/03/05 05:27:48;;;;;;;36.23;15.33;;;;;;;2.93;63.36;100021.30;125157;1099;101903;-75
2023/03/05 05:30:19;;;;;;;32.60;14.23;;;;;;;2.95;62.78;100023.98;125197;1099;104149;-75
2023/03/05 05:32:51;;;;;;;30.47;13.13;;;;;;;2.97;62.73;100017.18;125071;1099;102090;-75
2023/03/05 05:35:22;;;;;;;30.57;12.53;;;;;;;3.01;62.49;100025.22;125112;1099;104245;-74
2023/03/05 05:37:53;;;;;;;30.73;12.23;;;;;;;3.02;62.67;100031.30;125110;1099;104277;-74
2023/03/05 05:40:25;;;;;;;23.43;9.37;;;;;;;3.06;62.51;100028.09;125029;1099;104099;-75
2023/03/05 05:42:56;;;;;;;24.27;9.57;;;;;;;3.09;61.78;100030.86;125038;1099;101997;-75
2023/03/05 05:45:27;;;;;;;22.25;8.65;;;;;;;3.15;62.09;100032.92;125012;1099;104191;-75
2023/03/05 05:47:59;;;;;;;23.70;8.90;;;;;;;3.20;61.55;100037.55;125149;1099;104195;-75
2023/03/05 05:50:30;;;;;;;23.60;8.30;;;;;;;3.19;61.85;100037.45;125032;1099;104201;-75
2023/03/05 05:53:01;;;;;;;20.70;8.00;;;;;;;3.20;61.58;100041.85;126218;1098;104259;-74
2023/03/05 05:55:33;;;;;;;18.70;7.83;;;;;;;3.20;61.38;100042.73;125081;1099;104194;-75
2023/03/05 05:58:04;;;;;;;18.40;6.77;;;;;;;3.19;59.89;100046.12;125915;1099;104245;-75
2023/03/05 06:00:35;;;;;;;18.57;5.77;;;;;;;3.17;59.41;100047.74;125066;1099;101842;-75
2023/03/05 06:03:07;;;;;;;14.57;5.30;;;;;;;3.18;60.32;100051.22;125166;1098;104316;-74
2023/03/05 06:05:38;;;;;;;14.77;5.53;;;;;;;3.18;59.27;100048.62;125117;1099;102002;-75
2023/03/05 06:08:10;;;;;;;13.57;4.90;;;;;;;3.21;59.40;100051.39;124666;1099;104271;-74
2023/03/05 06:10:41;;;;;;;15.80;5.53;;;;;;;3.22;58.62;100054.08;124640;1099;104341;-75
2023/03/05 06:13:12;;;;;;;13.90;4.87;;;;;;;3.27;59.12;100061.23;125202;1099;102122;-75
2023/03/05 06:15:43;;;;;;;14.53;5.80;;;;;;;3.32;58.57;100064.98;125119;1099;101996;-75
2023/03/05 06:18:15;;;;;;;20.00;7.20;;;;;;;3.36;58.94;100054.88;125054;1099;102642;-75
2023/03/05 06:20:53;;;;;;;18.73;7.73;;;;;;;3.43;58.72;100058.73;125145;1099;104255;-75
2023/03/05 06:23:25;;;;;;;19.23;7.03;;;;;;;3.50;58.98;100062.56;125085;1098;104347;-75
2023/03/05 06:25:59;;;;;;;20.13;7.50;;;;;;;3.53;58.46;100066.21;125063;1098;103639;-75
2023/03/05 06:28:30;;;;;;;18.52;7.10;;;;;;;3.59;59.13;100065.67;126241;1099;104169;-75
2023/03/05 06:31:07;;;;;;;19.00;7.03;;;;;;;3.65;59.17;100067.73;125163;1099;104241;-75
2023/03/05 06:33:39;;;;;;;18.77;6.60;;;;;;;3.69;58.26;100059.30;125087;1099;102042;-74
2023/03/05 06:36:13;;;;;;;15.83;6.60;;;;;;;3.73;58.35;100059.55;125874;1098;104277;-74
2023/03/05 06:38:45;;;;;;;17.40;5.60;;;;;;;3.80;58.34;100060.78;125058;1099;101833;-75
2023/03/05 06:41:18;;;;;;;12.55;5.20;;;;;;;3.83;58.15;100060.95;125199;1099;103382;-75
2023/03/05 06:43:50;;;;;;;13.53;5.20;;;;;;;3.86;58.21;100061.12;125157;1099;104204;-75
2023/03/05 06:46:25;;;;;;;8.77;3.57;;;;;;;3.88;56.43;100062.12;125093;1098;104067;-75
2023/03/05 06:48:59;;;;;;;11.27;3.50;;;;;;;3.88;55.88;100068.99;125046;1099;102028;-74
2023/03/05 06:51:32;;;;;;;14.30;4.08;;;;;;;3.89;55.27;100068.19;124626;1099;101856;-75
2023/03/05 06:54:07;;;;;;;10.87;3.73;;;;;;;3.93;55.13;100070.16;126540;1098;104178;-75
2023/03/05 06:56:40;;;;;;;7.60;3.00;;;;;;;3.96;55.20;100072.93;125088;1099;102402;-75
2023/03/05 06:59:13;;;;;;;7.93;2.97;;;;;;;4.02;55.13;100074.95;125012;1099;104182;-75
2023/03/05 07:01:45;;;;;;;6.15;2.83;;;;;;;4.05;54.38;100077.71;124537;1099;104220;-75
2023/03/05 07:04:17;;;;;;;9.70;2.90;;;;;;;4.07;54.60;100078.72;125127;1099;101827;-74
2023/03/05 07:06:48;;;;;;;6.57;2.70;;;;;;;4.11;54.45;100073.77;125114;1099;102083;-75
2023/03/05 07:09:19;;;;;;;9.20;2.80;;;;;;;4.12;53.29;100072.06;125056;1099;104070;-75
2023/03/05 07:11:51;;;;;;;6.43;2.30;;;;;;;4.14;52.59;100080.81;125045;1099;104172;-74
2023/03/05 07:14:22;;;;;;;5.53;2.20;;;;;;;4.17;52.80;100074.91;124601;1099;104313;-75
2023/03/05 07:16:53;;;;;;;7.23;2.40;;;;;;;4.22;51.82;100081.23;125200;1099;101817;-75
2023/03/05 07:19:25;;;;;;;6.27;2.50;;;;;;;4.24;51.38;100083.11;125069;1098;104175;-75
2023/03/05 07:21:56;;;;;;;6.77;2.97;;;;;;;4.27;52.61;100088.48;125060;1099;104629;-75
2023/03/05 07:24:28;;;;;;;8.57;2.93;;;;;;;4.35;52.10;100085.38;125079;1099;104284;-75
2023/03/05 07:27:00;;;;;;;10.83;3.50;;;;;;;4.41;51.92;100089.22;125101;1099;102048;-75
2023/03/05 07:29:31;;;;;;;8.30;3.43;;;;;;;4.50;52.03;100088.80;125185;1099;101900;-74
2023/03/05 07:32:03;;;;;;;9.10;3.43;;;;;;;4.60;52.11;100087.61;125106;1099;104342;-75
2023/03/05 07:34:34;;;;;;;9.10;3.67;;;;;;;4.63;51.95;100088.66;125079;1099;102044;-75
2023/03/05 07:37:05;;;;;;;11.30;3.80;;;;;;;4.72;52.63;100088.26;125704;1099;104173;-75
2023/03/05 07:39:36;;;;;;;10.10;3.40;;;;;;;4.77;51.98;100093.66;125192;1099;104344;-75
2023/03/05 07:42:08;;;;;;;9.87;3.93;;;;;;;4.79;52.39;100087.74;125142;1099;104172;-75
2023/03/05 07:44:51;;;;;;;11.67;4.30;;;;;;;4.82;51.95;100085.30;124533;1099;104220;-75
2023/03/05 07:47:23;;;;;;;11.90;4.40;;;;;;;4.90;51.69;100087.42;125081;1099;101993;-76
2023/03/05 07:49:54;;;;;;;12.20;4.80;;;;;;;5.03;52.37;100084.62;125112;1098;104173;-75
2023/03/05 07:52:25;;;;;;;14.23;5.03;;;;;;;5.18;51.78;100068.91;125997;1099;101823;-75
2023/03/05 07:54:57;;;;;;;11.53;4.83;;;;;;;5.27;52.01;100078.90;124625;1099;104271;-75
2023/03/05 07:57:28;;;;;;;13.50;4.53;;;;;;;5.35;51.06;100083.64;125103;1098;102955;-76
2023/03/05 07:59:59;;;;;;;14.10;4.77;;;;;;;5.46;51.49;100086.78;125042;1099;104197;-75
2023/03/05 08:02:31;;;;;;;12.30;5.03;;;;;;;5.61;51.52;100085.74;125027;1099;104698;-75
2023/03/05 08:05:02;;;;;;;14.50;5.90;;;;;;;5.72;50.78;100077.66;125055;1098;104248;-75
2023/03/05 08:07:33;;;;;;;11.65;5.20;;;;;;;5.85;51.21;100081.73;125049;1099;104185;-75
2023/03/05 08:10:06;;;;;;;14.23;4.70;;;;;;;5.93;51.12;100076.89;125126;1098;101969;-74
2023/03/05 08:12:37;;;;;;;10.83;4.00;;;;;;;6.03;50.52;100080.84;125035;1099;102022;-74
2023/03/05 08:15:10;;;;;;;8.83;3.70;;;;;;;6.18;50.22;100078.95;124932;1099;102322;-75
2023/03/05 08:17:42;;;;;;;8.23;3.63;;;;;;;6.26;49.15;100079.31;124995;1098;104303;-75
2023/03/05 08:20:14;;;;;;;7.20;3.20;;;;;;;6.25;49.42;100073.22;125119;1099;104184;-75
2023/03/05 08:22:46;;;;;;;7.83;3.40;;;;;;;6.29;49.52;100077.77;124574;1099;101857;-75
2023/03/05 08:25:17;;;;;;;8.17;2.83;;;;;;;6.46;49.49;100083.72;125266;1098;101858;-75
2023/03/05 08:27:49;;;;;;;7.20;2.50;;;;;;;6.58;49.04;100083.39;124977;1099;104275;-75
2023/03/05 08:30:33;;;;;;;17.40;2.90;;;;;;;6.70;49.74;100083.06;125023;1098;104092;-74
2023/03/05 08:33:04;;;;;;;12.27;2.70;;;;;;;6.82;49.23;100088.82;126101;1098;101872;-74
2023/03/05 08:35:36;;;;;;;5.30;2.55;;;;;;;6.90;49.56;100085.64;124899;1098;102019;-74
2023/03/05 08:38:07;;;;;;;5.30;2.27;;;;;;;7.00;48.86;100080.01;125540;1098;104332;-75
2023/03/05 08:40:39;;;;;;;7.00;2.13;;;;;;;7.15;49.23;100083.28;124980;1099;104220;-75
2023/03/05 08:43:12;;;;;;;5.33;2.30;;;;;;;7.15;48.68;100082.36;126148;1098;104290;-75
2023/03/05 08:45:43;;;;;;;3.77;2.27;;;;;;;7.10;47.28;100084.78;125086;1099;104228;-75
2023/03/05 08:48:15;;;;;;;8.20;2.30;;;;;;;7.11;47.70;100081.35;125116;1099;104198;-75
2023/03/05 08:50:46;;;;;;;7.27;2.23;;;;;;;7.15;48.09;100082.36;125082;1099;104166;-75
2023/03/05 08:53:17;;;;;;;5.67;2.07;;;;;;;7.16;48.13;100092.87;125338;1099;101945;-74
2023/03/05 08:55:56;;;;;;;3.60;2.10;;;;;;;7.11;46.82;100094.40;124976;1099;104246;-75
2023/03/05 08:58:28;;;;;;;6.03;2.50;;;;;;;6.97;46.77;100083.36;125982;1098;102038;-75
2023/03/05 09:01:00;;;;;;;5.87;2.27;;;;;;;7.00;47.15;100087.84;124886;1099;104176;-74
2023/03/05 09:03:31;;;;;;;3.43;2.00;;;;;;;7.12;46.13;100090.98;124967;1099;104067;-74
2023/03/05 09:06:05;;;;;;;5.03;2.40;;;;;;;7.00;45.80;100080.01;125040;1099;104242;-75
2023/03/05 09:08:37;;;;;;;4.08;2.17;;;;;;;6.92;46.52;100082.28;124941;1099;102022;-74
2023/03/05 09:11:10;;;;;;;11.57;2.60;;;;;;;6.97;46.21;100088.58;125008;1099;104242;-75
2023/03/05 09:13:41;;;;;;;5.97;1.90;;;;;;;6.98;46.47;100084.25;126214;1098;101893;-75
2023/03/05 09:16:15;;;;;;;5.07;1.90;;;;;;;6.95;46.23;100086.72;125032;1099;104227;-75
2023/03/05 09:18:47;;;;;;;4.83;2.30;;;;;;;7.01;45.59;100073.94;125088;1099;104208;-75
2023/03/05 09:21:19;;;;;;;4.37;2.27;;;;;;;7.01;45.44;100073.94;126147;1098;101782;-75
2023/03/05 09:23:50;;;;;;;5.63;2.20;;;;;;;7.00;45.73;100078.28;126153;1099;102290;-75
2023/03/05 09:26:22;;;;;;;8.13;2.33;;;;;;;7.02;43.83;100075.73;125161;1099;104265;-76
2023/03/05 09:28:53;;;;;;;5.90;2.63;;;;;;;6.97;44.73;100082.48;125124;1099;104211;-75
2023/03/05 09:31:24;;;;;;;7.93;2.50;;;;;;;6.91;44.62;100067.45;125069;1099;104169;-75
2023/03/05 09:33:56;;;;;;;7.00;2.67;;;;;;;6.93;43.84;100064.91;124946;1099;101859;-75
2023/03/05 09:36:30;;;;;;;6.03;2.43;;;;;;;6.96;43.29;100060.70;124982;1099;104274;-75
2023/03/05 09:39:02;;;;;;;4.27;2.27;;;;;;;6.94;43.82;100067.58;125066;1099;104197;-75
2023/03/05 09:41:49;;;;;;;6.57;2.53;;;;;;;6.87;43.44;100065.52;124497;1099;104217;-75
2023/03/05 09:44:30;;;;;;;6.80;2.87;;;;;;;6.81;43.50;100053.13;125083;1099;104252;-75
2023/03/05 09:47:18;;;;;;;6.50;2.80;;;;;;;6.84;42.96;100062.81;125064;1099;102022;-75
2023/03/05 09:49:57;;;;;;;4.13;2.43;;;;;;;6.78;43.00;100060.81;125207;1099;104182;-76
2023/03/05 09:52:37;;;;;;;6.30;2.70;;;;;;;6.72;43.40;100060.55;125493;1099;101834;-75
2023/03/05 09:55:14;;;;;;;6.30;2.80;;;;;;;6.74;43.55;100058.88;124562;1099;102041;-75
2023/03/05 09:57:50;;;;;;;4.33;2.33;;;;;;;6.79;43.62;100052.17;124966;1099;104185;-74
2023/03/05 10:00:34;;;;;;;8.03;3.10;;;;;;;6.83;43.44;100054.07;125076;1098;102101;-74
2023/03/05 10:03:06;;;;;;;;;;;;;;;6.89;42.30;100052.55;126261;1099;101807;-75
2023/03/05 10:05:56;;;;;;;6.17;2.70;;;;;;;6.90;42.80;100051.73;125093;1099;102410;-75
2023/03/05 10:08:45;;;;;;;7.35;3.20;;;;;;;6.88;41.59;100053.39;124999;1099;101897;-75
2023/03/05 10:11:33;;;;;;;8.27;3.33;;;;;;;6.76;41.25;100046.83;125092;1099;104207;-76
2023/03/05 10:14:07;;;;;;;4.90;2.40;;;;;;;6.65;41.58;100048.05;125034;1099;102322;-76
2023/03/05 10:16:58;;;;;;;6.30;2.70;;;;;;;6.64;41.89;100043.68;124997;1099;102090;-75
2023/03/05 10:19:48;;;;;;;4.53;2.63;;;;;;;6.58;41.71;100041.68;125076;1098;102738;-75
2023/03/05 10:22:22;;;;;;;7.50;2.90;;;;;;;6.54;41.43;100034.53;125061;1099;104220;-75
2023/03/05 10:25:20;;;;;;;8.27;2.93;;;;;;;6.56;41.82;100035.52;125088;1098;102131;-75
2023/03/05 10:27:55;;;;;;;7.00;2.83;;;;;;;6.56;41.30;100024.17;124598;1099;104200;-75
2023/03/05 10:30:43;;;;;;;7.43;2.87;;;;;;;6.67;41.22;100033.38;125130;1099;104211;-75
2023/03/05 10:33:24;;;;;;;4.30;2.30;;;;;;;6.72;41.13;100026.64;126219;1098;104230;-75
2023/03/05 10:36:23;;;;;;;9.07;2.90;;;;;;;6.80;41.41;100026.98;125003;1099;104208;-75
2023/03/05 10:39:28;;;;;;;10.30;3.33;;;;;;;6.80;40.78;100013.94;125037;1099;101858;-75
2023/03/05 10:42:08;;;;;;;7.20;2.80;;;;;;;6.87;41.41;100012.48;125451;1099;110776;-75
2023/03/05 10:44:46;;;;;;;5.63;2.50;;;;;;;6.90;41.18;99999.56;125007;1099;104179;-75
2023/03/05 10:47:25;;;;;;;3.63;2.17;;;;;;;6.90;39.05;99996.95;125048;1099;103672;-75
2023/03/05 10:49:58;;;;;;;5.47;2.40;;;;;;;6.86;40.20;99997.64;124986;1099;104208;-74
2023/03/05 10:52:35;;;;;;;7.47;2.77;;;;;;;6.81;39.89;99993.14;125062;1099;104182;-75
2023/03/05 10:55:16;;;;;;;7.67;2.70;;;;;;;6.84;40.94;99990.67;124984;1099;101823;-75
2023/03/05 10:57:47;;;;;;;6.90;2.90;;;;;;;6.94;40.81;99993.66;126140;1098;101811;-75
2023/03/05 11:00:25;;;;;;;6.70;2.90;;;;;;;7.07;40.42;99987.23;124538;1099;102516;-75
2023/03/05 11:03:00;;;;;;;6.83;2.63;;;;;;;7.12;40.91;99973.56;124991;1098;104124;-74
2023/03/05 11:05:49;;;;;;;6.53;2.33;;;;;;;7.28;40.65;99976.80;124501;1099;104236;-75
2023/03/05 11:08:33;;;;;;;17.50;4.40;;;;;;;7.30;39.60;99977.74;125048;1099;102041;-75
2023/03/05 11:11:11;;;;;;;11.73;4.00;;;;;;;7.33;39.87;99972.64;124478;1099;104171;-75
2023/03/05 11:13:53;;;;;;;7.80;3.33;;;;;;;7.40;40.60;99973.77;125045;1099;104172;-75
2023/03/05 11:16:27;;;;;;;12.30;3.50;;;;;;;7.46;40.21;99968.80;125029;1099;101872;-75
2023/03/05 11:19:20;;;;;;;8.40;3.60;;;;;;;7.43;40.17;99969.55;125116;1099;104241;-75
2023/03/05 11:22:13;;;;;;;6.47;3.10;;;;;;;7.46;40.20;99964.45;125343;1099;104178;-75
2023/03/05 11:24:45;;;;;;;10.33;4.03;;;;;;;7.50;39.76;99955.05;124568;1099;104252;-75
2023/03/05 11:27:35;;;;;;;7.10;3.30;;;;;;;7.49;39.76;99961.09;124990;1099;102070;-74
2023/03/05 11:30:21;;;;;;;6.53;3.23;;;;;;;7.49;38.71;99959.35;125023;1099;103296;-75
2023/03/05 11:33:09;;;;;;;6.93;3.20;;;;;;;7.47;39.34;99955.80;125023;1099;104297;-75
2023/03/05 11:35:43;;;;;;;6.10;3.20;;;;;;;7.48;39.06;99954.98;125106;1099;102189;-75
2023/03/05 11:38:22;;;;;;;11.03;3.35;;;;;;;7.42;39.25;99952.13;124621;1099;104205;-75
2023/03/05 11:40:55;;;;;;;6.80;3.10;;;;;;;7.46;39.06;99950.52;124990;1098;102008;-75
2023/03/05 11:43:31;;;;;;;8.00;3.20;;;;;;;7.45;39.00;99956.56;126087;1098;104181;-75